Time;durP1;ratioP1;P1;durP2;ratioP2;P2;SDS_P1;SDS_P2;PMS_P1;PMS_P2;Temp;Humidity;BMP_temperature;BMP_pressure;BME280_temperature;BME280_humidity;BME280_pressure;Samples;Min_cycle;Max_cycle;Signal;HPM_P1;HPM_P2
2023/07/04 00:01:56;;;;;;;18.17;11.48;;;;;;;24.30;76.57;101028.16;4899706;28;20065;-80
2023/07/04 00:04:23;;;;;;;12.95;10.02;;;;;;;24.17;76.48;101006.53;4884805;29;20102;-79
2023/07/04 00:06:50;;;;;;;22.17;11.23;;;;;;;24.08;76.27;101006.78;4908646;28;20138;-79
2023/07/04 00:09:17;;;;;;;16.98;10.60;;;;;;;24.06;77.01;101006.16;4926367;28;20047;-80
2023/07/04 00:11:44;;;;;;;20.52;11.68;;;;;;;24.17;77.62;101036.34;4914017;29;20089;-79
2023/07/04 00:14:11;;;;;;;27.80;13.63;;;;;;;23.94;77.53;101013.31;4920896;28;20288;-81
2023/07/04 00:16:45;;;;;;;17.27;10.88;;;;;;;23.68;78.30;101001.47;4927218;28;20055;-80
2023/07/04 00:19:14;;;;;;;29.20;13.95;;;;;;;23.98;78.22;101044.38;4904788;29;20055;-80
2023/07/04 00:21:43;;;;;;;25.38;13.98;;;;;;;23.67;78.97;101018.78;4917481;29;20169;-80
2023/07/04 00:24:10;;;;;;;23.05;13.20;;;;;;;23.87;79.30;101058.59;4931209;28;20079;-78
2023/07/04 00:26:45;;;;;;;24.05;13.60;;;;;;;23.84;79.57;101067.16;4935180;28;20075;-78
2023/07/04 00:29:40;;;;;;;25.90;16.23;;;;;;;23.69;79.22;101021.28;4936396;28;20043;-78
2023/07/04 00:32:50;;;;;;;32.90;17.67;;;;;;;24.41;77.63;101081.72;4919176;28;20361;-80
2023/07/04 00:35:51;;;;;;;27.75;12.82;;;;;;;24.37;77.71;101075.09;4898916;28;20565;-78
2023/07/04 00:38:36;;;;;;;24.55;13.85;;;;;;;24.86;75.80;101095.31;4923881;28;20478;-80
2023/07/04 00:41:41;;;;;;;24.08;10.25;;;;;;;25.16;72.06;101075.63;4904746;28;20043;-79
2023/07/04 00:44:30;;;;;;;11.32;6.30;;;;;;;24.91;66.54;101087.31;4906105;28;20328;-78
2023/07/04 00:47:15;;;;;;;7.88;4.18;;;;;;;24.67;62.37;101086.22;4911096;28;20170;-80
2023/07/04 00:49:46;;;;;;;15.82;4.50;;;;;;;24.49;64.88;101100.53;4914807;28;20043;-78
2023/07/04 00:52:33;;;;;;;8.80;5.13;;;;;;;24.64;66.69;101074.97;4896946;28;20051;-79
2023/07/04 00:55:10;;;;;;;6.40;3.38;;;;;;;24.76;64.07;101035.22;4889780;28;20310;-77
2023/07/04 00:57:58;;;;;;;9.52;5.18;;;;;;;25.16;64.71;101029.47;4892504;28;20564;-80
2023/07/04 01:00:44;;;;;;;6.43;2.90;;;;;;;25.27;61.33;101042.34;4890451;29;20130;-78
2023/07/04 01:03:31;;;;;;;8.02;4.15;;;;;;;24.94;63.30;100989.09;4898054;29;20222;-80
2023/07/04 01:06:35;;;;;;;10.38;4.15;;;;;;;25.74;64.54;101059.03;4885509;29;20051;-79
2023/07/04 01:09:10;;;;;;;6.38;4.18;;;;;;;25.86;63.98;101039.28;4884317;28;20481;-78
2023/07/04 01:11:45;;;;;;;4.55;3.28;;;;;;;25.68;64.00;101040.91;4897320;29;20047;-79
2023/07/04 01:14:32;;;;;;;10.65;3.53;;;;;;;25.54;58.76;101047.53;4903252;29;20455;-78
2023/07/04 01:16:59;;;;;;;5.13;3.15;;;;;;;25.02;61.94;101019.75;4897353;28;20562;-81
2023/07/04 01:19:32;;;;;;;3.35;2.13;;;;;;;25.15;61.63;101047.66;4915211;28;20063;-78
2023/07/04 01:22:14;;;;;;;3.75;3.45;;;;;;;24.67;60.02;101040.06;4898164;28;20505;-80
2023/07/04 01:24:45;;;;;;;5.47;1.85;;;;;;;23.75;60.42;100958.13;4906514;29;20055;-78
2023/07/04 01:27:14;;;;;;;4.88;2.08;;;;;;;23.14;61.41;100924.09;4897731;28;20062;-79
2023/07/04 01:29:42;;;;;;;4.68;2.17;;;;;;;23.04;62.10;100956.19;4915852;29;20355;-79
2023/07/04 01:32:09;;;;;;;7.28;2.33;;;;;;;23.66;63.52;101055.03;4903955;29;20495;-80
2023/07/04 01:34:42;;;;;;;6.22;2.45;;;;;;;23.73;64.26;101056.94;4880780;29;20127;-80
2023/07/04 01:37:19;;;;;;;9.98;2.67;;;;;;;23.60;65.13;101036.94;4860423;29;20048;-80
2023/07/04 01:39:46;;;;;;;8.65;2.33;;;;;;;23.76;64.90;101024.81;4880180;29;20160;-79
2023/07/04 01:42:18;;;;;;;7.00;2.13;;;;;;;23.96;63.76;101051.88;4871125;29;20052;-81
2023/07/04 01:44:46;;;;;;;5.65;2.60;;;;;;;23.87;62.36;101036.91;4881704;29;20100;-80
2023/07/04 01:47:12;;;;;;;4.50;2.25;;;;;;;23.39;63.08;101004.69;4898330;29;20470;-79
2023/07/04 01:49:44;;;;;;;6.13;2.08;;;;;;;23.50;61.41;101025.72;4870070;29;20287;-80
2023/07/04 01:52:13;;;;;;;7.95;2.53;;;;;;;23.55;63.35;101038.63;4875982;29;20334;-79
2023/07/04 01:54:40;;;;;;;7.53;1.95;;;;;;;23.66;61.26;101040.66;4863308;29;20717;-79
2023/07/04 01:57:10;;;;;;;7.00;2.10;;;;;;;23.76;62.25;101072.78;4888384;29;20648;-79
2023/07/04 01:59:44;;;;;;;6.22;2.28;;;;;;;23.63;63.99;101041.09;4882556;29;20122;-80
2023/07/04 02:02:11;;;;;;;3.10;1.92;;;;;;;23.77;66.21;101009.41;4891422;29;20081;-79
2023/07/04 02:04:37;;;;;;;6.20;2.25;;;;;;;24.05;62.11;101055.19;4908233;29;20640;-79
2023/07/04 02:07:04;;;;;;;5.55;1.80;;;;;;;23.90;61.76;101041.88;4894640;29;20532;-78
2023/07/04 02:09:31;;;;;;;3.90;2.38;;;;;;;23.81;62.04;101054.88;4891141;29;20048;-80
2023/07/04 02:12:16;;;;;;;5.20;2.55;;;;;;;24.02;63.59;101040.16;4874512;29;20044;-80
2023/07/04 02:14:46;;;;;;;4.10;1.83;;;;;;;23.82;63.06;101034.81;4923805;28;20091;-80
2023/07/04 02:17:15;;;;;;;4.70;2.10;;;;;;;23.89;61.10;101061.94;4910740;29;20079;-79
2023/07/04 02:19:44;;;;;;;3.42;2.45;;;;;;;23.96;60.60;101075.44;4898024;29;20398;-81
2023/07/04 02:22:17;;;;;;;6.80;2.58;;;;;;;23.91;61.17;101069.81;4909585;28;20441;-80
2023/07/04 02:24:59;;;;;;;4.53;2.20;;;;;;;23.84;61.71;101069.88;4885672;29;20063;-81
2023/07/04 02:27:33;;;;;;;3.45;2.40;;;;;;;23.88;61.57;101077.38;4889113;29;20256;-81
2023/07/04 02:30:00;;;;;;;6.40;2.30;;;;;;;23.92;62.95;101071.50;4896134;28;20150;-79
2023/07/04 02:32:27;;;;;;;5.10;2.42;;;;;;;23.82;60.93;101063.81;4905536;29;20055;-80
2023/07/04 02:34:58;;;;;;;6.63;2.20;;;;;;;23.93;63.62;101056.91;4899114;29;20126;-79
2023/07/04 02:37:35;;;;;;;6.10;2.53;;;;;;;23.72;62.05;101011.91;4908491;28;20625;-80
2023/07/04 02:40:13;;;;;;;4.88;2.65;;;;;;;24.02;61.09;101061.03;4888068;29;20347;-80
2023/07/04 02:42:43;;;;;;;5.55;2.35;;;;;;;23.82;61.84;101040.25;4885982;29;20103;-80
2023/07/04 02:45:10;;;;;;;3.45;2.40;;;;;;;23.70;60.89;101025.66;4891314;29;20446;-80
2023/07/04 02:47:37;;;;;;;4.47;2.17;;;;;;;23.49;60.61;101034.88;4895773;29;20130;-81
2023/07/04 02:50:04;;;;;;;5.40;2.92;;;;;;;23.56;61.47;101064.66;4891467;29;20428;-80
2023/07/04 02:52:30;;;;;;;4.78;2.55;;;;;;;23.21;61.45;101027.00;4898836;29;20062;-80
2023/07/04 02:55:00;;;;;;;5.70;1.80;;;;;;;23.58;64.30;101060.69;4897036;29;20100;-78
2023/07/04 02:57:34;;;;;;;4.25;2.38;;;;;;;23.60;64.96;101055.09;4881722;29;20107;-80
2023/07/04 03:00:08;;;;;;;4.50;2.75;;;;;;;24.00;65.67;101042.25;4878865;29;20390;-80
2023/07/04 03:02:49;;;;;;;3.63;2.58;;;;;;;24.19;64.27;101055.97;4878287;29;20181;-80
2023/07/04 03:05:17;;;;;;;6.85;2.35;;;;;;;24.48;63.73;101035.59;4890182;29;20248;-79
2023/07/04 03:07:44;;;;;;;6.55;2.85;;;;;;;24.70;62.18;101025.22;4899434;29;20383;-79
2023/07/04 03:10:12;;;;;;;5.13;2.38;;;;;;;24.91;63.02;101041.16;4895073;29;20039;-80
2023/07/04 03:12:39;;;;;;;4.30;1.98;;;;;;;25.18;62.95;101054.56;4896173;29;20131;-80
2023/07/04 03:15:12;;;;;;;9.32;3.90;;;;;;;24.69;60.23;101018.16;4903816;29;20537;-81
2023/07/04 03:17:52;;;;;;;11.18;3.08;;;;;;;24.22;60.28;101012.13;4886592;29;20402;-80
2023/07/04 03:20:25;;;;;;;10.38;2.83;;;;;;;24.05;60.95;101028.06;4873707;29;20114;-81
2023/07/04 03:22:53;;;;;;;4.18;2.53;;;;;;;23.70;62.21;100995.03;4914685;29;20047;-80
2023/07/04 03:25:20;;;;;;;5.93;2.67;;;;;;;23.54;62.87;100999.84;4906761;29;20489;-80
2023/07/04 03:27:47;;;;;;;6.57;3.08;;;;;;;23.21;62.80;100962.00;4879965;29;20550;-80
2023/07/04 03:30:18;;;;;;;6.03;3.38;;;;;;;23.67;63.98;101029.63;4877166;29;20052;-76
2023/07/04 03:32:46;;;;;;;10.23;3.38;;;;;;;23.55;62.72;101023.19;4866028;29;20083;-79
2023/07/04 03:35:17;;;;;;;5.25;2.83;;;;;;;23.48;63.49;101033.22;4885778;29;20462;-81
2023/07/04 03:37:50;;;;;;;14.30;3.13;;;;;;;23.36;63.40;101029.47;4902200;28;20062;-80
2023/07/04 03:40:25;;;;;;;12.23;2.92;;;;;;;23.22;64.34;101029.47;4864076;29;20821;-80
2023/07/04 03:42:52;;;;;;;7.88;3.40;;;;;;;23.11;65.40;101027.44;4886092;29;20127;-78
2023/07/04 03:45:23;;;;;;;6.22;3.58;;;;;;;22.82;65.87;101002.41;4894873;29;20052;-80
2023/07/04 03:47:53;;;;;;;12.30;3.03;;;;;;;22.71;66.46;101016.53;4889960;29;20159;-81
2023/07/04 03:50:20;;;;;;;14.80;3.45;;;;;;;22.37;66.61;100972.34;4886724;29;20052;-79
2023/07/04 03:52:49;;;;;;;8.82;2.97;;;;;;;22.40;67.42;101006.28;4890248;29;20502;-79
2023/07/04 03:55:16;;;;;;;11.07;3.25;;;;;;;22.52;67.67;101028.16;4877585;29;20046;-77
2023/07/04 03:57:43;;;;;;;6.00;2.67;;;;;;;22.33;67.97;101019.81;4891944;29;20469;-78
2023/07/04 04:00:10;;;;;;;6.05;3.15;;;;;;;21.96;68.49;100958.91;4896417;29;20469;-81
2023/07/04 04:02:37;;;;;;;4.13;2.90;;;;;;;22.36;68.89;101037.50;4899272;28;20051;-78
2023/07/04 04:05:07;;;;;;;6.68;3.00;;;;;;;22.16;69.23;101013.03;4889738;28;20048;-78
2023/07/04 04:07:41;;;;;;;11.30;3.42;;;;;;;22.05;68.97;100986.59;4890341;28;20086;-79
2023/07/04 04:10:08;;;;;;;11.15;3.50;;;;;;;22.17;69.06;101009.31;4917134;28;20102;-79
2023/07/04 04:12:35;;;;;;;10.20;3.47;;;;;;;22.15;69.34;100997.88;4901644;28;20058;-78
2023/07/04 04:15:06;;;;;;;7.32;3.75;;;;;;;22.37;69.58;101026.44;4923788;28;20299;-80
2023/07/04 04:17:38;;;;;;;12.20;3.35;;;;;;;22.07;68.85;100995.34;4905332;29;20338;-80
2023/07/04 04:20:06;;;;;;;6.97;3.15;;;;;;;22.27;69.11;101020.59;4916565;28;20382;-78
2023/07/04 04:22:43;;;;;;;9.68;3.40;;;;;;;21.96;69.67;100981.34;4924433;28;20429;-79
2023/07/04 04:25:20;;;;;;;11.57;4.05;;;;;;;22.09;69.71;101001.38;4887896;29;20051;-80
2023/07/04 04:27:50;;;;;;;9.30;2.83;;;;;;;22.18;69.70;101006.38;4924441;28;20428;-79
2023/07/04 04:30:17;;;;;;;7.07;3.17;;;;;;;22.13;69.97;100992.66;4906736;29;20302;-79
2023/07/04 04:32:48;;;;;;;7.93;3.30;;;;;;;22.33;69.39;101025.22;4891040;28;20569;-79
2023/07/04 04:35:14;;;;;;;9.05;3.28;;;;;;;22.32;69.46;101018.13;4917434;29;20057;-80
2023/07/04 04:37:41;;;;;;;6.47;3.13;;;;;;;22.36;69.37;101018.56;4939416;28;20168;-79
2023/07/04 04:40:08;;;;;;;14.48;3.40;;;;;;;22.34;68.80;101005.22;4906878;29;20293;-79
2023/07/04 04:42:37;;;;;;;6.82;3.35;;;;;;;22.36;68.62;101008.56;4919618;28;20056;-80
2023/07/04 04:45:04;;;;;;;13.73;3.80;;;;;;;22.37;68.29;100988.59;4922328;29;20439;-79
2023/07/04 04:47:34;;;;;;;7.95;3.65;;;;;;;22.48;67.81;100994.47;4925333;28;20553;-80
2023/07/04 04:50:02;;;;;;;12.00;2.95;;;;;;;22.52;68.00;100982.16;4902449;29;20090;-79
2023/07/04 04:52:31;;;;;;;10.05;4.18;;;;;;;22.75;66.13;100990.72;4916550;29;20110;-79
2023/07/04 04:55:02;;;;;;;5.55;2.88;;;;;;;22.91;66.19;101023.84;4913519;28;20130;-79
2023/07/04 04:57:29;;;;;;;9.52;3.40;;;;;;;22.87;66.08;101014.47;4917104;28;20137;-78
2023/07/04 04:59:59;;;;;;;8.55;3.30;;;;;;;22.95;65.66;101019.69;4893738;29;20047;-80
2023/07/04 05:02:31;;;;;;;7.05;3.65;;;;;;;23.02;66.04;101017.84;4890328;28;20355;-80
2023/07/04 05:05:01;;;;;;;10.73;2.97;;;;;;;23.06;65.30;101034.50;4904459;29;20059;-78
2023/07/04 05:07:29;;;;;;;7.15;3.63;;;;;;;23.13;65.16;101030.75;4905574;29;20154;-79
2023/07/04 05:09:58;;;;;;;11.18;2.78;;;;;;;22.52;64.17;100917.22;4917529;28;20667;-81
2023/07/04 05:12:30;;;;;;;7.70;3.28;;;;;;;23.11;63.90;101011.19;4900810;29;20134;-81
2023/07/04 05:14:57;;;;;;;5.80;3.00;;;;;;;23.21;63.23;101011.59;4886842;28;20526;-79
2023/07/04 05:17:24;;;;;;;8.65;3.30;;;;;;;23.39;63.80;101039.91;4869509;29;20149;-79
2023/07/04 05:19:51;;;;;;;7.32;3.20;;;;;;;23.33;63.80;101036.16;4919795;29;20714;-79
2023/07/04 05:22:19;;;;;;;8.10;3.10;;;;;;;23.39;64.33;101043.44;4908321;28;20052;-77
2023/07/04 05:24:54;;;;;;;10.48;2.95;;;;;;;23.39;64.18;101035.31;4918118;28;20292;-77
2023/07/04 05:27:21;;;;;;;5.55;3.17;;;;;;;23.23;64.52;100995.97;4912584;29;20496;-79
2023/07/04 05:29:48;;;;;;;6.03;3.20;;;;;;;23.54;64.34;101045.91;4898667;29;20050;-79
2023/07/04 05:32:15;;;;;;;10.68;4.07;;;;;;;23.46;64.08;101024.47;4910480;29;20469;-79
2023/07/04 05:34:47;;;;;;;5.93;2.85;;;;;;;23.62;63.38;101042.97;4897773;28;20516;-79
2023/07/04 05:37:14;;;;;;;11.98;3.70;;;;;;;23.15;63.55;100979.91;4902090;29;20112;-78
2023/07/04 05:39:41;;;;;;;8.35;3.22;;;;;;;23.29;63.68;101010.53;4878803;29;20083;-78
2023/07/04 05:42:08;;;;;;;12.10;3.10;;;;;;;23.46;64.02;101046.97;4904309;29;20079;-78
2023/07/04 05:44:41;;;;;;;13.45;3.40;;;;;;;23.60;64.77;101068.63;4896911;28;20281;-80
2023/07/04 05:47:14;;;;;;;8.43;4.00;;;;;;;23.66;64.35;101068.59;4897048;28;20088;-79
2023/07/04 05:49:41;;;;;;;13.32;4.75;;;;;;;23.63;64.49;101060.91;4906183;28;20699;-79
2023/07/04 05:52:10;;;;;;;9.82;3.95;;;;;;;23.38;64.45;101022.81;4883377;29;20209;-79
2023/07/04 05:54:37;;;;;;;10.50;3.50;;;;;;;23.64;65.93;101056.31;4926126;28;20126;-80
2023/07/04 05:57:07;;;;;;;8.20;3.22;;;;;;;23.53;65.04;101044.25;4915457;29;20051;-77
2023/07/04 05:59:34;;;;;;;13.90;4.70;;;;;;;22.79;64.01;100915.34;4912230;28;20312;-81
2023/07/04 06:02:01;;;;;;;9.48;3.78;;;;;;;23.71;64.20;101080.69;4909784;29;20091;-80
2023/07/04 06:04:28;;;;;;;15.13;4.20;;;;;;;23.49;63.69;101045.72;4907711;29;20043;-79
2023/07/04 06:06:58;;;;;;;8.05;4.20;;;;;;;23.58;62.84;101060.69;4910675;29;20074;-79
2023/07/04 06:09:25;;;;;;;12.18;3.38;;;;;;;23.31;63.04;101059.91;4919083;28;20552;-79
2023/07/04 06:11:52;;;;;;;8.27;3.03;;;;;;;23.32;63.21;101082.41;4910896;29;20472;-80
2023/07/04 06:14:30;;;;;;;6.85;3.15;;;;;;;23.13;65.37;101036.19;4915395;28;20087;-80
2023/07/04 06:17:04;;;;;;;7.60;3.90;;;;;;;23.23;63.19;101052.84;4897152;29;20055;-80
2023/07/04 06:19:33;;;;;;;11.70;5.85;;;;;;;23.59;65.00;101065.09;4910939;28;20047;-82
2023/07/04 06:22:03;;;;;;;14.30;5.20;;;;;;;23.21;65.19;100998.03;4894717;28;20255;-79
2023/07/04 06:24:29;;;;;;;4.05;2.72;;;;;;;23.98;65.89;101055.22;4922605;28;20079;-80
2023/07/04 06:26:56;;;;;;;10.23;3.85;;;;;;;25.05;63.18;101070.91;4896061;29;20047;-78
2023/07/04 06:29:23;;;;;;;6.45;3.08;;;;;;;25.23;61.81;101032.97;4873310;29;20056;-82
2023/07/04 06:31:55;;;;;;;7.40;2.95;;;;;;;25.35;62.05;101061.09;4884623;29;20083;-80
2023/07/04 06:34:27;;;;;;;13.48;5.57;;;;;;;25.26;61.05;101039.84;4881373;28;20361;-80
2023/07/04 06:36:54;;;;;;;5.57;3.08;;;;;;;25.03;61.86;101032.31;4923304;28;20141;-80
2023/07/04 06:39:21;;;;;;;6.78;4.50;;;;;;;24.92;62.33;101055.56;4921475;28;20090;-82
2023/07/04 06:41:49;;;;;;;11.02;4.60;;;;;;;25.10;61.79;101082.81;4909486;28;20288;-81
2023/07/04 06:44:16;;;;;;;11.27;4.43;;;;;;;25.12;60.56;101063.53;4901565;28;20367;-81
2023/07/04 06:46:44;;;;;;;11.25;5.30;;;;;;;24.70;60.91;101046.94;4913199;28;20409;-79
2023/07/04 06:49:16;;;;;;;7.10;4.57;;;;;;;24.49;62.14;101073.38;4902668;28;20552;-80
2023/07/04 06:51:45;;;;;;;10.10;5.15;;;;;;;24.47;62.41;101070.06;4908083;28;20116;-80
2023/07/04 06:54:12;;;;;;;4.75;3.00;;;;;;;24.50;62.72;101064.19;4907076;28;20614;-82
2023/07/04 06:56:39;;;;;;;8.90;3.38;;;;;;;24.81;63.06;101064.41;4910781;28;20966;-80
2023/07/04 06:59:11;;;;;;;7.35;3.13;;;;;;;25.21;62.86;101075.84;4904389;28;20141;-81
2023/07/04 07:01:44;;;;;;;11.80;4.28;;;;;;;24.89;61.72;101029.69;4876360;29;20482;-79
2023/07/04 07:04:13;;;;;;;7.53;3.42;;;;;;;25.34;62.26;101091.19;4893076;29;20083;-79
2023/07/04 07:06:40;;;;;;;10.05;4.82;;;;;;;25.15;60.83;101093.00;4912603;29;20055;-79
2023/07/04 07:09:08;;;;;;;9.32;5.10;;;;;;;25.01;60.16;101056.13;4935499;28;20421;-81
2023/07/04 07:11:35;;;;;;;10.35;5.20;;;;;;;24.92;60.17;101075.41;4901974;28;20345;-80
2023/07/04 07:14:02;;;;;;;13.38;3.83;;;;;;;25.29;61.85;101100.03;4935241;28;20057;-79
2023/07/04 07:16:31;;;;;;;7.03;3.90;;;;;;;25.29;61.51;101059.28;4933788;28;20044;-81
2023/07/04 07:18:59;;;;;;;7.53;5.03;;;;;;;25.48;60.00;101064.72;4927988;28;20106;-79
2023/07/04 07:21:26;;;;;;;6.43;3.28;;;;;;;25.89;61.01;101102.19;4934497;28;20111;-80
2023/07/04 07:23:55;;;;;;;6.57;3.60;;;;;;;26.08;59.99;101097.59;4915122;28;20402;-81
2023/07/04 07:26:25;;;;;;;7.90;3.20;;;;;;;25.52;60.15;101028.72;4906327;28;20070;-79
2023/07/04 07:28:53;;;;;;;6.57;3.38;;;;;;;26.00;59.74;101106.06;4896601;28;20629;-81
2023/07/04 07:31:26;;;;;;;10.45;5.88;;;;;;;25.50;59.01;101059.91;4873678;29;20789;-82
2023/07/04 07:33:58;;;;;;;7.80;3.28;;;;;;;25.26;60.52;101024.38;4919054;28;20117;-77
2023/07/04 07:36:30;;;;;;;14.48;5.15;;;;;;;26.03;59.52;101100.16;4884539;29;20110;-82
2023/07/04 07:39:02;;;;;;;12.65;4.40;;;;;;;25.79;59.80;101082.81;4905972;29;20422;-80
2023/07/04 07:41:36;;;;;;;13.98;7.15;;;;;;;25.35;59.24;101044.78;4908996;29;20086;-77
2023/07/04 07:44:06;;;;;;;9.13;3.72;;;;;;;25.88;60.12;101102.44;4918209;28;20047;-80
2023/07/04 07:46:36;;;;;;;12.20;5.00;;;;;;;25.85;59.44;101122.72;4911245;28;20727;-82
2023/07/04 07:49:03;;;;;;;11.43;5.07;;;;;;;26.03;59.23;101116.47;4866712;28;20281;-80
2023/07/04 07:51:32;;;;;;;13.38;5.38;;;;;;;25.71;59.09;101100.25;4871842;29;20557;-81
2023/07/04 07:54:06;;;;;;;7.32;3.75;;;;;;;25.62;60.22;101060.00;4902979;28;20453;-81
2023/07/04 07:56:40;;;;;;;;;;;;;;;26.16;59.48;101126.38;4899061;29;20809;-81
2023/07/04 07:59:09;;;;;;;10.18;3.80;;;;;;;26.28;59.48;101104.69;4910763;28;19922;-81
2023/07/04 08:01:43;;;;;;;9.60;3.67;;;;;;;26.48;58.81;101129.75;4911383;29;20476;-81
2023/07/04 08:04:14;;;;;;;9.68;6.03;;;;;;;26.19;58.30;101099.56;4901361;29;20059;-81
2023/07/04 08:06:44;;;;;;;11.98;4.20;;;;;;;26.64;58.78;101126.41;4910718;29;20142;-82
2023/07/04 08:09:15;;;;;;;15.55;5.90;;;;;;;26.37;58.33;101071.47;4886403;28;20058;-80
2023/07/04 08:11:43;;;;;;;;;;;;;;;26.51;58.58;101123.03;4917357;28;20339;-81
2023/07/04 08:14:10;;;;;;;13.98;6.15;;;;;;;26.13;58.08;101070.53;4916458;28;20001;-81
2023/07/04 08:16:55;;;;;;;18.98;6.40;;;;;;;26.17;58.76;101112.56;4865213;28;20821;-82
2023/07/04 08:19:28;;;;;;;8.40;3.97;;;;;;;25.90;59.86;101100.28;4877499;28;20075;-82
2023/07/04 08:21:58;;;;;;;16.38;5.93;;;;;;;26.09;59.70;101126.44;4888468;29;20073;-82
2023/07/04 08:24:25;;;;;;;10.33;5.90;;;;;;;26.15;59.88;101101.06;4909575;29;20047;-82
2023/07/04 08:26:54;;;;;;;9.85;6.88;;;;;;;25.89;58.74;101061.41;4886644;29;20047;-79
2023/07/04 08:29:21;;;;;;;8.23;5.47;;;;;;;26.26;59.03;101115.78;4905913;29;20353;-80
2023/07/04 08:31:51;;;;;;;6.77;3.30;;;;;;;26.20;59.04;101054.94;4909643;29;20050;-80
2023/07/04 08:34:18;;;;;;;9.88;4.75;;;;;;;26.59;57.97;101120.00;4895286;28;20131;-81
2023/07/04 08:36:48;;;;;;;9.40;4.18;;;;;;;26.76;58.65;101114.75;4910332;28;20136;-81
2023/07/04 08:39:14;;;;;;;15.85;6.32;;;;;;;26.98;57.60;101126.78;4915303;28;20289;-84
2023/07/04 08:41:42;;;;;;;11.45;4.30;;;;;;;26.94;57.85;101120.13;4882050;28;20408;-82
2023/07/04 08:44:19;;;;;;;11.75;6.75;;;;;;;25.67;56.93;100944.06;4897809;28;20474;-81
2023/07/04 08:46:48;;;;;;;17.35;6.90;;;;;;;26.67;57.47;101116.13;4890702;28;20059;-83
2023/07/04 08:49:21;;;;;;;14.70;7.93;;;;;;;26.32;57.96;101092.28;4879149;29;20385;-81
2023/07/04 08:51:55;;;;;;;18.25;8.93;;;;;;;26.26;59.33;101104.06;4892512;28;20070;-82
2023/07/04 08:54:22;;;;;;;21.10;9.20;;;;;;;26.18;58.71;101054.34;4911652;28;20691;-82
2023/07/04 08:56:50;;;;;;;16.60;5.68;;;;;;;26.85;58.51;101135.16;4896021;28;20327;-81
2023/07/04 08:59:32;;;;;;;14.68;5.70;;;;;;;26.55;58.17;101065.19;4895559;29;20525;-81
2023/07/04 09:02:08;;;;;;;19.80;8.45;;;;;;;26.91;57.72;101131.50;4895617;28;20134;-80
2023/07/04 09:05:16;;;;;;;17.48;5.43;;;;;;;27.07;57.07;101119.94;4898336;29;20395;-79
2023/07/04 09:08:00;;;;;;;14.38;6.70;;;;;;;26.69;56.79;101070.44;4911890;29;20051;-80
2023/07/04 09:10:32;;;;;;;15.45;5.95;;;;;;;27.19;57.29;101135.53;4931525;28;20497;-81
2023/07/04 09:13:05;;;;;;;19.35;5.78;;;;;;;27.51;56.36;101129.75;4920979;28;20089;-82
2023/07/04 09:15:45;;;;;;;11.43;5.45;;;;;;;27.24;56.83;101124.75;4911548;28;20128;-81
2023/07/04 09:18:31;;;;;;;11.25;4.68;;;;;;;27.44;55.26;101121.69;4905480;29;20047;-79
2023/07/04 09:21:15;;;;;;;9.55;4.68;;;;;;;27.57;55.74;101126.06;4915615;28;20047;-79
2023/07/04 09:23:44;;;;;;;10.82;4.57;;;;;;;27.63;55.82;101119.69;4916004;28;20075;-78
2023/07/04 09:26:15;;;;;;;7.85;3.97;;;;;;;27.43;56.45;101126.31;4911128;29;20055;-80
2023/07/04 09:28:44;;;;;;;15.73;5.77;;;;;;;27.57;55.54;101128.78;4923575;28;20190;-81
2023/07/04 09:31:18;;;;;;;6.43;3.90;;;;;;;27.43;53.47;101093.59;4917155;28;20055;-79
2023/07/04 09:33:48;;;;;;;11.10;3.75;;;;;;;27.49;54.28;101119.06;4925078;29;20656;-83
2023/07/04 09:36:16;;;;;;;8.98;4.28;;;;;;;27.37;55.14;101105.44;4924466;28;20654;-78
2023/07/04 09:39:05;;;;;;;9.90;3.80;;;;;;;27.75;54.77;101117.78;4907684;29;20480;-81
2023/07/04 09:41:39;;;;;;;13.23;4.05;;;;;;;27.89;54.79;101126.56;4919186;29;20106;-76
2023/07/04 09:44:33;;;;;;;7.65;3.97;;;;;;;27.34;54.33;101084.09;4899241;29;20118;-81
2023/07/04 09:47:05;;;;;;;8.25;4.55;;;;;;;27.59;54.72;101132.13;4919455;29;20109;-82
2023/07/04 09:49:36;;;;;;;10.50;3.55;;;;;;;27.66;55.48;101124.66;4895408;28;20524;-79
2023/07/04 09:52:17;;;;;;;6.30;3.47;;;;;;;27.66;54.87;101086.47;4902725;29;20110;-83
2023/07/04 09:55:07;;;;;;;10.45;4.18;;;;;;;28.00;54.51;101124.91;4886981;29;20306;-80
2023/07/04 09:57:37;;;;;;;6.65;3.60;;;;;;;27.82;54.80;101104.88;4888151;29;20067;-81
2023/07/04 10:00:26;;;;;;;11.70;3.60;;;;;;;27.78;52.66;101133.66;4875932;29;20512;-82
2023/07/04 10:03:04;;;;;;;10.13;3.17;;;;;;;28.12;53.20;101118.34;4872524;29;20533;-82
2023/07/04 10:05:35;;;;;;;8.38;3.20;;;;;;;28.19;53.46;101118.22;4866603;29;20472;-83
2023/07/04 10:08:06;;;;;;;4.95;3.03;;;;;;;28.42;53.03;101124.66;4898980;29;20048;-80
2023/07/04 10:10:36;;;;;;;;;;;;;;;28.39;52.93;101130.63;4885348;29;20062;-81
2023/07/04 10:13:06;;;;;;;7.22;3.40;;;;;;;28.03;53.42;101113.50;4903990;29;20044;-81
2023/07/04 10:15:45;;;;;;;6.93;2.83;;;;;;;27.75;52.89;101108.78;4884766;29;20710;-80
2023/07/04 10:18:26;;;;;;;6.72;2.97;;;;;;;27.78;53.28;101089.19;4899453;29;20764;-80
2023/07/04 10:20:55;;;;;;;5.50;2.88;;;;;;;28.23;52.77;101119.41;4898035;29;20089;-79
2023/07/04 10:23:30;;;;;;;5.03;3.50;;;;;;;28.12;52.27;101121.06;4905432;29;20055;-79
2023/07/04 10:26:01;;;;;;;9.57;3.10;;;;;;;28.01;51.98;101099.25;4893011;29;20491;-80
2023/07/04 10:28:31;;;;;;;10.85;3.40;;;;;;;28.19;52.00;101112.75;4874279;29;20548;-78
2023/07/04 10:31:14;;;;;;;7.10;2.92;;;;;;;28.52;52.20;101113.97;4897291;29;20059;-82
2023/07/04 10:33:52;;;;;;;5.57;2.50;;;;;;;28.18;51.53;101031.09;4896845;29;20302;-80
2023/07/04 10:36:26;;;;;;;5.05;2.88;;;;;;;29.02;51.60;101105.06;4913075;29;20110;-79
2023/07/04 10:38:58;;;;;;;7.72;3.00;;;;;;;28.95;50.86;101093.47;4899157;29;20474;-80
2023/07/04 10:41:49;;;;;;;6.35;2.88;;;;;;;28.44;50.24;101076.94;4906993;28;20047;-81
2023/07/04 10:44:34;;;;;;;7.43;2.60;;;;;;;28.86;50.65;101063.00;4886204;29;20081;-80
2023/07/04 10:47:17;;;;;;;9.15;3.03;;;;;;;28.91;49.61;101089.56;4869233;29;20055;-80
2023/07/04 10:49:59;;;;;;;8.93;2.90;;;;;;;29.14;50.27;101094.91;4867653;29;20048;-81
2023/07/04 10:52:35;;;;;;;4.82;2.55;;;;;;;29.27;49.98;101076.50;4885126;29;20274;-81
2023/07/04 10:55:03;;;;;;;5.43;2.90;;;;;;;29.10;50.47;101080.06;4881897;29;20331;-82
2023/07/04 10:57:39;;;;;;;5.35;2.60;;;;;;;29.22;50.39;101080.00;4897669;29;20059;-79
2023/07/04 11:00:21;;;;;;;6.15;2.83;;;;;;;28.99;49.99;101089.16;4918040;28;20780;-79
2023/07/04 11:03:03;;;;;;;8.90;3.30;;;;;;;28.75;49.60;101044.75;4892208;29;20596;-80
2023/07/04 11:05:44;;;;;;;5.10;2.80;;;;;;;28.86;51.16;101084.00;4902636;29;20571;-81
2023/07/04 11:08:23;;;;;;;5.93;2.72;;;;;;;28.93;50.57;101073.75;4905320;29;20048;-80
2023/07/04 11:10:57;;;;;;;8.43;2.63;;;;;;;28.91;51.00;101079.47;4919599;29;20052;-81
2023/07/04 11:17:11;;;;;;;5.28;2.88;;;;;;;28.87;51.01;101077.47;4888101;29;20062;-81
2023/07/04 11:20:07;;;;;;;5.90;2.65;;;;;;;29.08;50.46;101059.53;4925094;28;20056;-79
2023/07/04 11:22:47;;;;;;;5.10;2.28;;;;;;;29.43;49.72;101072.13;4917347;28;20448;-81
2023/07/04 11:25:37;;;;;;;;;;;;;;;29.27;49.61;101079.25;4897549;29;20058;-79
2023/07/04 11:28:37;;;;;;;5.55;2.60;;;;;;;29.01;49.79;101034.25;4912504;29;20408;-79
2023/07/04 11:31:27;;;;;;;8.23;2.70;;;;;;;29.09;50.15;101062.03;4905106;29;20625;-78
2023/07/04 11:33:54;;;;;;;7.65;3.10;;;;;;;29.00;50.41;101071.69;4908463;29;20514;-81
2023/07/04 11:36:51;;;;;;;6.80;2.70;;;;;;;28.84;49.27;101072.50;4859025;29;20052;-80
2023/07/04 11:39:18;;;;;;;4.85;2.83;;;;;;;28.89;49.80;101067.13;4829175;29;20048;-79
2023/07/04 11:41:46;;;;;;;4.10;2.40;;;;;;;29.06;47.64;101045.28;4850072;29;20119;-81
2023/07/04 11:44:28;;;;;;;5.00;2.95;;;;;;;29.93;45.53;101069.28;4908360;28;20597;-81
2023/07/04 11:47:09;;;;;;;9.15;2.45;;;;;;;30.61;44.19;101050.63;4888951;29;20079;-81
2023/07/04 11:49:36;;;;;;;7.90;3.20;;;;;;;31.11;43.85;101050.53;4891330;28;20048;-82
2023/07/04 11:52:13;;;;;;;6.65;2.58;;;;;;;31.61;41.01;101052.81;4903823;29;20315;-81